createdAt,value
2019-03-11T00:00:52.537Z,0.00
2019-03-11T00:01:52.536Z,0.00
2019-03-11T00:02:52.490Z,0.00
2019-03-11T00:03:52.605Z,0.00
2019-03-11T00:04:52.501Z,0.00
2019-03-11T00:05:52.482Z,0.00
2019-03-11T00:06:52.445Z,0.00
2019-03-11T00:07:52.476Z,0.00
2019-03-11T00:08:52.435Z,0.00
2019-03-11T00:09:52.412Z,0.00
2019-03-11T00:10:52.413Z,0.00
2019-03-11T00:11:52.390Z,0.00
2019-03-11T00:12:52.400Z,0.00
2019-03-11T00:13:52.380Z,0.00
2019-03-11T00:14:52.363Z,0.00
2019-03-11T00:15:52.375Z,0.00
2019-03-11T00:16:52.361Z,0.00
2019-03-11T00:17:52.328Z,0.00
2019-03-11T00:18:52.328Z,0.00
2019-03-11T00:19:52.304Z,0.00
2019-03-11T00:20:52.294Z,0.00
2019-03-11T00:21:52.301Z,0.00
2019-03-11T00:22:52.292Z,0.00
2019-03-11T00:23:52.274Z,0.00
2019-03-11T00:24:52.252Z,0.00
2019-03-11T00:25:52.242Z,0.00
2019-03-11T00:26:52.238Z,0.00
2019-03-11T00:27:52.279Z,0.00
2019-03-11T00:28:52.222Z,0.00
2019-03-11T00:29:52.199Z,0.00
2019-03-11T00:30:52.189Z,0.00
2019-03-11T00:31:52.183Z,0.00
2019-03-11T00:32:52.169Z,0.00
2019-03-11T00:33:52.193Z,0.00
2019-03-11T00:34:52.162Z,0.00
2019-03-11T00:35:52.166Z,0.00
2019-03-11T00:36:52.125Z,0.00
2019-03-11T00:37:52.118Z,0.00
2019-03-11T00:38:52.119Z,0.00
2019-03-11T00:39:52.111Z,0.00
2019-03-11T00:40:52.085Z,0.00
2019-03-11T00:41:52.072Z,0.00
2019-03-11T00:42:52.068Z,0.00
2019-03-11T00:43:52.063Z,0.00
2019-03-11T00:44:52.040Z,0.00
2019-03-11T00:45:52.072Z,0.00
2019-03-11T00:46:52.022Z,0.00
2019-03-11T00:48:01.450Z,0.00
2019-03-11T00:48:53.008Z,0.00
2019-03-11T00:49:51.989Z,0.00
2019-03-11T00:50:51.977Z,0.00
2019-03-11T00:51:51.982Z,0.00
2019-03-11T00:52:51.974Z,0.00
2019-03-11T00:53:51.964Z,0.00
2019-03-11T00:54:51.969Z,0.00
2019-03-11T00:55:51.924Z,0.00
2019-03-11T00:56:51.916Z,0.00
2019-03-11T00:57:51.910Z,0.00
2019-03-11T00:58:51.948Z,0.00
2019-03-11T00:59:51.888Z,0.00
2019-03-11T01:00:51.882Z,0.00
2019-03-11T01:01:51.894Z,0.00
2019-03-11T01:02:51.864Z,0.00
2019-03-11T01:03:51.865Z,0.00
2019-03-11T01:04:51.919Z,0.00
2019-03-11T01:05:51.896Z,0.00
2019-03-11T01:06:51.845Z,0.00
2019-03-11T01:07:51.796Z,0.00
2019-03-11T01:08:51.794Z,0.00
2019-03-11T01:09:51.825Z,0.00
2019-03-11T01:10:51.793Z,0.00
2019-03-11T01:11:51.761Z,0.00
2019-03-11T01:12:51.746Z,0.00
2019-03-11T01:13:51.765Z,0.00
2019-03-11T01:14:51.734Z,0.00
2019-03-11T01:15:51.723Z,0.00
2019-03-11T01:16:51.723Z,0.00
2019-03-11T01:17:51.693Z,0.00
2019-03-11T01:18:51.709Z,0.00
2019-03-11T01:19:51.714Z,0.00
2019-03-11T01:20:51.661Z,0.00
2019-03-11T01:21:51.650Z,0.00
2019-03-11T01:22:51.638Z,0.00
2019-03-11T01:23:51.626Z,0.00
2019-03-11T01:24:51.629Z,0.00
2019-03-11T01:25:51.619Z,0.00
2019-03-11T01:26:51.606Z,0.00
2019-03-11T01:27:51.642Z,0.00
2019-03-11T01:28:51.655Z,0.00
2019-03-11T01:29:51.618Z,0.00
2019-03-11T01:30:51.638Z,0.00
2019-03-11T01:31:51.567Z,0.00
2019-03-11T01:32:51.573Z,0.00
2019-03-11T01:33:51.608Z,0.00
2019-03-11T01:34:51.539Z,0.00
2019-03-11T01:35:51.504Z,0.00
2019-03-11T01:36:51.494Z,0.00
2019-03-11T01:37:51.538Z,0.00
2019-03-11T01:38:51.502Z,0.00
2019-03-11T01:39:51.539Z,0.00
2019-03-11T01:40:51.508Z,0.00
2019-03-11T01:41:51.466Z,0.00
2019-03-11T01:42:51.955Z,0.00
2019-03-11T01:43:51.427Z,0.00
2019-03-11T01:44:51.420Z,0.00
2019-03-11T01:45:51.428Z,0.00
2019-03-11T01:46:51.407Z,0.00
2019-03-11T01:47:51.374Z,0.00
2019-03-11T01:48:51.418Z,0.00
2019-03-11T01:49:51.629Z,0.00
2019-03-11T01:50:51.342Z,0.00
2019-03-11T01:51:51.343Z,0.00
2019-03-11T01:52:51.329Z,0.00
2019-03-11T01:53:51.330Z,0.00
2019-03-11T01:54:51.307Z,0.00
2019-03-11T01:55:51.354Z,0.00
2019-03-11T01:56:51.321Z,0.00
2019-03-11T01:57:51.339Z,0.00
2019-03-11T01:58:51.268Z,0.00
2019-03-11T01:59:51.284Z,0.00
2019-03-11T02:00:51.308Z,0.00
2019-03-11T02:01:51.236Z,0.00
2019-03-11T02:02:51.217Z,0.00
2019-03-11T02:03:51.215Z,0.00
2019-03-11T02:04:51.205Z,0.00
2019-03-11T02:05:51.204Z,0.00
2019-03-11T02:06:51.199Z,0.00
2019-03-11T02:07:51.170Z,0.00
2019-03-11T02:08:51.158Z,0.00
2019-03-11T02:09:51.146Z,0.00
2019-03-11T02:10:51.155Z,0.00
2019-03-11T02:11:51.138Z,0.00
2019-03-11T02:12:51.112Z,0.00
2019-03-11T02:13:51.170Z,0.00
2019-03-11T02:14:51.163Z,0.00
2019-03-11T02:15:51.156Z,0.00
2019-03-11T02:16:51.079Z,0.00
2019-03-11T02:17:51.064Z,0.00
2019-03-11T02:18:51.072Z,0.00
2019-03-11T02:19:51.052Z,0.00
2019-03-11T02:20:51.103Z,0.00
2019-03-11T02:21:51.021Z,0.00
2019-03-11T02:22:51.026Z,0.00
2019-03-11T02:23:51.007Z,0.00
2019-03-11T02:24:50.998Z,0.00
2019-03-11T02:25:51.038Z,0.00
2019-03-11T02:26:50.964Z,0.00
2019-03-11T02:27:50.973Z,0.00
2019-03-11T02:28:50.976Z,0.00
2019-03-11T02:29:50.932Z,0.00
2019-03-11T02:30:50.937Z,0.00
2019-03-11T02:31:50.924Z,0.00
2019-03-11T02:32:50.913Z,0.00
2019-03-11T02:33:50.906Z,0.00
2019-03-11T02:34:50.926Z,0.00
2019-03-11T02:35:50.886Z,0.00
2019-03-11T02:36:50.862Z,0.00
2019-03-11T02:37:50.854Z,0.00
2019-03-11T02:38:50.840Z,0.00
2019-03-11T02:39:50.841Z,0.00
2019-03-11T02:40:50.859Z,0.00
2019-03-11T02:41:50.813Z,0.00
2019-03-11T02:42:50.870Z,0.00
2019-03-11T02:43:50.812Z,0.00
2019-03-11T02:44:50.812Z,0.00
2019-03-11T02:45:50.797Z,0.00
2019-03-11T02:46:50.765Z,0.00
2019-03-11T02:47:50.770Z,0.00
2019-03-11T02:48:50.779Z,0.00
2019-03-11T02:49:50.739Z,0.00
2019-03-11T02:50:50.757Z,0.00
2019-03-11T02:51:50.793Z,0.00
2019-03-11T02:52:50.710Z,0.00
2019-03-11T02:53:50.686Z,0.00
2019-03-11T02:54:50.733Z,0.00
2019-03-11T02:55:51.306Z,0.00
2019-03-11T02:56:50.699Z,0.00
2019-03-11T02:57:50.653Z,0.00
2019-03-11T02:58:50.632Z,0.00
2019-03-11T02:59:50.640Z,0.00
2019-03-11T03:00:50.647Z,0.00
2019-03-11T03:01:50.633Z,0.00
2019-03-11T03:02:50.600Z,0.00
2019-03-11T03:03:50.606Z,0.00
2019-03-11T03:04:50.566Z,0.00
2019-03-11T03:05:50.563Z,0.00
2019-03-11T03:06:50.566Z,0.00
2019-03-11T03:07:50.551Z,0.00
2019-03-11T03:08:50.550Z,0.00
2019-03-11T03:09:50.542Z,0.00
2019-03-11T03:10:50.512Z,0.00
2019-03-11T03:11:50.584Z,0.00
2019-03-11T03:12:50.545Z,0.00
2019-03-11T03:13:50.478Z,0.00
2019-03-11T03:14:50.495Z,0.00
2019-03-11T03:15:50.477Z,0.00
2019-03-11T03:16:50.505Z,0.00
2019-03-11T03:17:50.460Z,0.00
2019-03-11T03:18:50.433Z,0.00
2019-03-11T03:19:50.409Z,0.00
2019-03-11T03:20:50.423Z,0.00
2019-03-11T03:21:50.410Z,0.00
2019-03-11T03:22:50.395Z,0.00
2019-03-11T03:23:50.372Z,0.00
2019-03-11T03:24:50.364Z,0.00
2019-03-11T03:25:50.359Z,0.00
2019-03-11T03:26:50.392Z,0.00
2019-03-11T03:27:50.408Z,0.00
2019-03-11T03:28:50.313Z,0.00
2019-03-11T03:29:50.331Z,0.00
2019-03-11T03:30:50.323Z,0.00
2019-03-11T03:31:50.332Z,0.00
2019-03-11T03:32:50.280Z,0.00
2019-03-11T03:33:50.262Z,0.00
2019-03-11T03:34:50.288Z,0.00
2019-03-11T03:35:50.250Z,0.00
2019-03-11T03:39:24.030Z,0.00
2019-03-11T03:40:24.025Z,0.00
2019-03-11T03:41:24.016Z,0.00
2019-03-11T03:42:24.090Z,0.00
2019-03-11T03:43:24.014Z,0.00
2019-03-11T03:44:24.034Z,0.00
2019-03-11T03:45:23.970Z,0.00
2019-03-11T03:46:23.950Z,0.00
2019-03-11T03:47:23.992Z,0.00
2019-03-11T03:48:23.958Z,0.00
2019-03-11T03:49:23.913Z,0.00
2019-03-11T03:50:23.903Z,0.00
2019-03-11T03:51:23.901Z,0.00
2019-03-11T03:52:23.902Z,0.00
2019-03-11T03:53:23.956Z,0.00
2019-03-11T03:54:23.943Z,0.00
2019-03-11T03:55:23.863Z,0.00
2019-03-11T03:56:23.886Z,0.00
2019-03-11T03:57:23.856Z,0.00
2019-03-11T03:58:23.836Z,0.00
2019-03-11T03:59:23.861Z,0.00
2019-03-11T04:00:23.967Z,0.00
2019-03-11T04:01:23.817Z,0.00
2019-03-11T04:02:23.807Z,0.00
2019-03-11T04:03:23.853Z,0.00
2019-03-11T04:04:23.791Z,0.00
2019-03-11T04:05:23.768Z,0.00
2019-03-11T04:06:24.048Z,0.00
2019-03-11T04:07:23.871Z,0.00
2019-03-11T04:08:24.094Z,0.00
2019-03-11T04:09:23.947Z,0.00
2019-03-11T04:10:23.927Z,0.00
2019-03-11T04:11:23.854Z,0.00
2019-03-11T04:12:23.778Z,0.00
2019-03-11T04:13:23.886Z,0.00
2019-03-11T04:14:23.904Z,0.00
2019-03-11T04:15:23.850Z,0.00
2019-03-11T04:16:23.899Z,0.00
2019-03-11T04:17:23.823Z,0.00
2019-03-11T04:18:23.754Z,0.00
2019-03-11T04:19:23.701Z,0.00
2019-03-11T04:20:23.749Z,0.00
2019-03-11T04:21:23.659Z,0.00
2019-03-11T04:22:23.662Z,0.00
2019-03-11T04:23:23.634Z,0.00
2019-03-11T04:24:23.574Z,0.00
2019-03-11T04:25:23.636Z,0.00
2019-03-11T04:26:23.734Z,0.00
2019-03-11T04:27:23.583Z,0.00
2019-03-11T04:28:23.697Z,0.00
2019-03-11T04:29:23.803Z,0.00
2019-03-11T04:30:23.683Z,0.00
2019-03-11T04:31:23.648Z,0.00
2019-03-11T04:32:23.620Z,0.00
2019-03-11T04:33:23.739Z,0.00
2019-03-11T04:34:23.511Z,0.00
2019-03-11T04:35:23.730Z,0.00
2019-03-11T04:36:23.526Z,0.00
2019-03-11T04:37:23.410Z,0.00
2019-03-11T04:38:23.410Z,0.00
2019-03-11T04:39:23.389Z,0.00
2019-03-11T04:40:23.385Z,0.00
2019-03-11T04:41:23.365Z,0.00
2019-03-11T04:42:23.363Z,0.00
2019-03-11T04:43:23.357Z,0.00
2019-03-11T04:44:23.339Z,0.00
2019-03-11T04:45:23.349Z,0.00
2019-03-11T04:46:23.317Z,0.00
2019-03-11T04:47:23.304Z,0.00
2019-03-11T04:48:23.334Z,0.00
2019-03-11T04:49:23.291Z,0.00
2019-03-11T04:50:23.287Z,0.00
2019-03-11T04:51:23.335Z,0.00
2019-03-11T04:52:23.466Z,0.00
2019-03-11T04:53:23.823Z,0.00
2019-03-11T04:54:23.228Z,0.00
2019-03-11T04:55:23.348Z,0.00
2019-03-11T04:56:23.212Z,0.00
2019-03-11T04:57:23.588Z,0.00
2019-03-11T04:58:23.261Z,0.00
2019-03-11T04:59:23.215Z,0.00
2019-03-11T05:00:23.171Z,0.00
2019-03-11T05:01:23.237Z,0.00
2019-03-11T05:02:23.160Z,0.00
2019-03-11T05:03:23.166Z,0.00
2019-03-11T05:04:23.136Z,0.00
2019-03-11T05:05:23.113Z,0.00
2019-03-11T05:06:23.144Z,0.00
2019-03-11T05:07:23.124Z,0.00
2019-03-11T05:08:23.104Z,0.00
2019-03-11T05:09:23.111Z,0.00
2019-03-11T05:10:23.129Z,0.00
2019-03-11T05:11:23.091Z,0.00
2019-03-11T05:12:23.085Z,0.00
2019-03-11T05:13:23.051Z,0.00
2019-03-11T05:14:23.020Z,0.00
2019-03-11T05:15:23.048Z,0.00
2019-03-11T05:16:23.044Z,0.00
2019-03-11T05:17:22.996Z,0.00
2019-03-11T05:18:22.994Z,0.00
2019-03-11T05:19:23.006Z,0.00
2019-03-11T05:20:23.040Z,0.00
2019-03-11T05:21:22.949Z,0.00
2019-03-11T05:22:22.937Z,0.00
2019-03-11T05:23:22.938Z,0.00
2019-03-11T05:24:22.940Z,0.00
2019-03-11T05:25:23.010Z,0.00
2019-03-11T05:26:22.894Z,0.00
2019-03-11T05:27:22.925Z,0.00
2019-03-11T05:28:22.883Z,0.00
2019-03-11T05:29:22.863Z,0.00
2019-03-11T05:30:22.895Z,0.00
2019-03-11T05:31:22.854Z,0.00
2019-03-11T05:32:22.923Z,0.00
2019-03-11T05:33:22.891Z,0.00
2019-03-11T05:34:22.824Z,0.00
2019-03-11T05:35:22.818Z,0.00
2019-03-11T05:36:22.788Z,0.00
2019-03-11T05:37:22.796Z,0.00
2019-03-11T05:38:22.787Z,0.00
2019-03-11T05:39:22.835Z,0.00
2019-03-11T05:40:22.748Z,0.00
2019-03-11T05:41:22.742Z,0.00
2019-03-11T05:42:22.842Z,0.00
2019-03-11T05:43:22.744Z,0.00
2019-03-11T05:44:22.735Z,0.00
2019-03-11T05:45:22.740Z,0.00
2019-03-11T05:46:22.725Z,0.00
2019-03-11T05:47:22.673Z,0.00
2019-03-11T05:48:22.699Z,0.00
2019-03-11T05:49:22.717Z,0.00
2019-03-11T05:50:22.642Z,0.00
2019-03-11T05:51:31.081Z,0.00
2019-03-11T05:52:23.691Z,0.00
2019-03-11T05:53:22.639Z,0.00
2019-03-11T05:54:22.652Z,0.00
2019-03-11T05:55:22.593Z,0.00
2019-03-11T05:56:22.581Z,0.00
2019-03-11T05:57:22.566Z,0.00
2019-03-11T05:58:22.600Z,0.00
2019-03-11T05:59:22.604Z,0.00
2019-03-11T06:00:22.573Z,0.00
2019-03-11T06:01:22.533Z,0.00
2019-03-11T06:02:22.512Z,0.00
2019-03-11T06:03:22.546Z,0.00
2019-03-11T06:04:22.492Z,0.00
2019-03-11T06:05:22.495Z,5.62
2019-03-11T06:06:22.517Z,5.62
2019-03-11T06:07:22.462Z,0.00
2019-03-11T06:08:22.457Z,0.00
2019-03-11T06:09:22.452Z,0.00
2019-03-11T06:10:22.432Z,0.00
2019-03-11T06:11:22.419Z,0.00
2019-03-11T06:12:22.427Z,0.00
2019-03-11T06:13:22.402Z,5.62
2019-03-11T06:14:22.397Z,5.62
2019-03-11T06:15:22.378Z,5.62
2019-03-11T06:16:22.367Z,5.62
2019-03-11T06:17:22.354Z,11.25
2019-03-11T06:18:22.353Z,11.25
2019-03-11T06:19:22.381Z,16.88
2019-03-11T06:20:22.329Z,16.88
2019-03-11T06:21:22.317Z,16.88
2019-03-11T06:22:22.309Z,16.88
2019-03-11T06:23:22.300Z,16.88
2019-03-11T06:24:22.296Z,11.25
2019-03-11T06:25:22.312Z,11.25
2019-03-11T06:26:22.275Z,11.25
2019-03-11T06:27:22.478Z,5.62
2019-03-11T06:28:22.240Z,5.62
2019-03-11T06:29:30.120Z,5.62
2019-03-11T06:30:23.218Z,5.62
2019-03-11T06:31:22.239Z,5.62
2019-03-11T06:32:22.207Z,5.62
2019-03-11T06:33:22.188Z,5.62
2019-03-11T06:34:22.189Z,5.62
2019-03-11T06:35:22.171Z,11.25
2019-03-11T06:36:22.162Z,16.88
2019-03-11T06:37:22.189Z,22.50
2019-03-11T06:38:22.141Z,16.88
2019-03-11T06:39:22.133Z,11.25
2019-03-11T06:40:22.131Z,11.25
2019-03-11T06:41:22.102Z,16.88
2019-03-11T06:42:22.099Z,16.88
2019-03-11T06:43:22.152Z,11.25
2019-03-11T06:44:22.085Z,11.25
2019-03-11T06:45:22.060Z,11.25
2019-03-11T06:46:22.059Z,5.62
2019-03-11T06:47:22.039Z,11.25
2019-03-11T06:48:22.029Z,11.25
2019-03-11T06:49:22.079Z,11.25
2019-03-11T06:50:22.011Z,11.25
2019-03-11T06:51:21.996Z,5.62
2019-03-11T06:52:21.987Z,5.62
2019-03-11T06:53:21.980Z,5.62
2019-03-11T06:54:21.985Z,5.62
2019-03-11T06:55:21.998Z,5.62
2019-03-11T06:56:21.942Z,5.62
2019-03-11T06:57:21.941Z,5.62
2019-03-11T06:58:21.926Z,5.62
2019-03-11T06:59:21.910Z,11.25
2019-03-11T07:00:21.926Z,11.25
2019-03-11T07:01:21.931Z,11.25
2019-03-11T07:02:21.914Z,11.25
2019-03-11T07:03:21.868Z,11.25
2019-03-11T07:04:21.858Z,5.62
2019-03-11T07:05:21.868Z,11.25
2019-03-11T07:06:21.847Z,11.25
2019-03-11T07:07:21.850Z,22.50
2019-03-11T07:08:21.819Z,28.12
2019-03-11T07:09:21.840Z,22.50
2019-03-11T07:10:21.832Z,22.50
2019-03-11T07:11:21.797Z,28.12
2019-03-11T07:12:22.197Z,33.75
2019-03-11T07:13:21.812Z,39.38
2019-03-11T07:14:21.755Z,45.00
2019-03-11T07:15:21.766Z,56.25
2019-03-11T07:16:21.775Z,67.50
2019-03-11T07:17:21.727Z,84.38
2019-03-11T07:18:21.746Z,90.00
2019-03-11T07:19:21.705Z,95.62
2019-03-11T07:20:21.812Z,101.25
2019-03-11T07:21:21.681Z,106.88
2019-03-11T07:22:21.680Z,112.50
2019-03-11T07:23:21.734Z,118.12
2019-03-11T07:24:21.658Z,118.12
2019-03-11T07:25:21.658Z,112.50
2019-03-11T07:26:21.646Z,106.88
2019-03-11T07:27:21.628Z,106.88
2019-03-11T07:28:21.630Z,112.50
2019-03-11T07:29:21.607Z,129.38
2019-03-11T07:30:21.600Z,157.50
2019-03-11T07:31:21.582Z,185.62
2019-03-11T07:32:21.619Z,213.75
2019-03-11T07:33:21.625Z,236.25
2019-03-11T07:34:21.548Z,253.12
2019-03-11T07:35:21.581Z,258.75
2019-03-11T07:36:21.529Z,275.62
2019-03-11T07:37:21.641Z,303.75
2019-03-11T07:38:21.550Z,326.25
2019-03-11T07:39:21.498Z,337.50
2019-03-11T07:40:29.673Z,337.50
2019-03-11T07:41:22.472Z,348.75
2019-03-11T07:42:21.504Z,360.00
2019-03-11T07:43:21.454Z,376.88
2019-03-11T07:44:21.467Z,399.38
2019-03-11T07:45:21.504Z,416.25
2019-03-11T07:46:21.422Z,416.25
2019-03-11T07:47:21.408Z,410.62
2019-03-11T07:48:21.401Z,388.12
2019-03-11T07:49:21.415Z,365.62
2019-03-11T07:50:21.392Z,382.50
2019-03-11T07:51:21.385Z,405.00
2019-03-11T07:52:21.388Z,410.62
2019-03-11T07:53:21.346Z,421.88
2019-03-11T07:54:21.339Z,421.88
2019-03-11T07:55:21.373Z,416.25
2019-03-11T07:56:21.316Z,410.62
2019-03-11T07:57:21.322Z,410.62
2019-03-11T07:58:21.315Z,416.25
2019-03-11T07:59:21.283Z,421.88
2019-03-11T08:00:21.313Z,427.50
2019-03-11T08:01:21.265Z,427.50
2019-03-11T08:02:21.255Z,393.75
2019-03-11T08:03:21.243Z,461.25
2019-03-11T08:04:21.230Z,517.50
2019-03-11T08:05:21.261Z,585.00
2019-03-11T08:06:21.223Z,652.50
2019-03-11T08:07:21.272Z,748.12
2019-03-11T08:08:21.187Z,798.75
2019-03-11T08:09:21.185Z,798.75
2019-03-11T08:10:21.191Z,742.50
2019-03-11T08:11:21.184Z,646.88
2019-03-11T08:12:21.144Z,573.75
2019-03-11T08:13:21.183Z,489.38
2019-03-11T08:14:21.126Z,438.75
2019-03-11T08:15:21.129Z,405.00
2019-03-11T08:16:21.107Z,371.25
2019-03-11T08:17:21.111Z,309.38
2019-03-11T08:18:21.083Z,292.50
2019-03-11T08:19:21.107Z,292.50
2019-03-11T08:20:21.080Z,303.75
2019-03-11T08:21:21.051Z,348.75
2019-03-11T08:22:21.042Z,455.62
2019-03-11T08:23:21.044Z,472.50
2019-03-11T08:24:21.019Z,405.00
2019-03-11T08:25:21.018Z,331.88
2019-03-11T08:26:21.010Z,376.88
2019-03-11T08:27:20.986Z,517.50
2019-03-11T08:28:20.984Z,573.75
2019-03-11T08:29:20.994Z,686.25
2019-03-11T08:30:21.010Z,652.50
2019-03-11T08:31:20.962Z,708.75
2019-03-11T08:32:20.971Z,691.88
2019-03-11T08:33:20.952Z,641.25
2019-03-11T08:34:20.912Z,607.50
2019-03-11T08:35:20.935Z,618.75
2019-03-11T08:36:20.910Z,708.75
2019-03-11T08:37:20.880Z,759.38
2019-03-11T08:38:20.888Z,618.75
2019-03-11T08:39:20.861Z,534.38
2019-03-11T08:40:20.866Z,495.00
2019-03-11T08:41:20.852Z,556.88
2019-03-11T08:42:20.831Z,528.75
2019-03-11T08:43:20.818Z,416.25
2019-03-11T08:44:20.805Z,450.00
2019-03-11T08:45:20.808Z,438.75
2019-03-11T08:46:20.787Z,360.00
2019-03-11T08:47:20.775Z,399.38
2019-03-11T08:48:20.764Z,528.75
2019-03-11T08:49:20.760Z,573.75
2019-03-11T08:50:20.766Z,506.25
2019-03-11T08:51:20.731Z,343.12
2019-03-11T08:52:20.742Z,253.12
2019-03-11T08:53:20.749Z,236.25
2019-03-11T08:54:20.702Z,241.88
2019-03-11T08:55:20.715Z,264.38
2019-03-11T08:56:20.677Z,258.75
2019-03-11T08:57:20.679Z,247.50
2019-03-11T08:58:20.656Z,270.00
2019-03-11T08:59:20.650Z,258.75
2019-03-11T09:00:20.655Z,258.75
2019-03-11T09:01:20.623Z,230.62
2019-03-11T09:02:20.618Z,247.50
2019-03-11T09:03:20.640Z,286.88
2019-03-11T09:04:20.592Z,326.25
2019-03-11T09:05:20.664Z,365.62
2019-03-11T09:06:20.571Z,388.12
2019-03-11T09:07:20.562Z,427.50
2019-03-11T09:08:20.550Z,461.25
2019-03-11T09:09:20.544Z,478.12
2019-03-11T09:10:20.553Z,511.88
2019-03-11T09:11:20.544Z,500.62
2019-03-11T09:12:20.527Z,483.75
2019-03-11T09:13:20.499Z,478.12
2019-03-11T09:14:20.486Z,500.62
2019-03-11T09:15:20.496Z,562.50
2019-03-11T09:16:20.489Z,568.12
2019-03-11T09:17:20.535Z,641.25
2019-03-11T09:18:20.445Z,720.00
2019-03-11T09:19:20.448Z,736.88
2019-03-11T09:20:20.422Z,652.50
2019-03-11T09:21:20.452Z,613.12
2019-03-11T09:22:20.402Z,675.00
2019-03-11T09:23:20.466Z,748.12
2019-03-11T09:24:20.383Z,708.75
2019-03-11T09:25:20.377Z,669.38
2019-03-11T09:26:20.380Z,601.88
2019-03-11T09:27:20.376Z,551.25
2019-03-11T09:28:20.438Z,1265.62
2019-03-11T09:29:20.366Z,118.12
2019-03-11T09:30:20.316Z,73.12
2019-03-11T09:31:20.316Z,78.75
2019-03-11T09:32:20.294Z,151.88
2019-03-11T09:33:20.296Z,320.62
2019-03-11T09:34:20.275Z,376.88
2019-03-11T09:35:20.297Z,528.75
2019-03-11T09:36:20.267Z,517.50
2019-03-11T09:37:20.248Z,360.00
2019-03-11T09:38:20.232Z,253.12
2019-03-11T09:39:20.229Z,219.38
2019-03-11T09:40:20.215Z,202.50
2019-03-11T09:41:20.238Z,196.88
2019-03-11T09:42:20.193Z,174.38
2019-03-11T09:43:20.180Z,151.88
2019-03-11T09:44:20.196Z,157.50
2019-03-11T09:45:20.157Z,157.50
2019-03-11T09:46:20.169Z,157.50
2019-03-11T09:47:20.254Z,168.75
2019-03-11T09:48:20.139Z,191.25
2019-03-11T09:49:20.237Z,213.75
2019-03-11T09:50:20.150Z,196.88
2019-03-11T09:51:20.180Z,191.25
2019-03-11T09:52:20.093Z,163.12
2019-03-11T09:53:20.234Z,140.62
2019-03-11T09:54:20.168Z,101.25
2019-03-11T09:55:20.228Z,84.38
2019-03-11T09:56:20.184Z,67.50
2019-03-11T09:57:20.030Z,61.88
2019-03-11T09:58:20.025Z,56.25
2019-03-11T09:59:20.057Z,50.62
2019-03-11T10:00:20.124Z,45.00
2019-03-11T10:01:20.006Z,39.38
2019-03-11T10:02:20.037Z,39.38
2019-03-11T10:03:19.985Z,33.75
2019-03-11T10:04:20.065Z,28.12
2019-03-11T10:05:19.947Z,28.12
2019-03-11T10:06:19.956Z,22.50
2019-03-11T10:07:20.087Z,28.12
2019-03-11T10:08:19.941Z,33.75
2019-03-11T10:09:19.964Z,33.75
2019-03-11T10:10:19.900Z,28.12
2019-03-11T10:11:19.912Z,22.50
2019-03-11T10:12:19.952Z,28.12
2019-03-11T10:13:19.902Z,33.75
2019-03-11T10:14:19.859Z,28.12
2019-03-11T10:15:19.873Z,22.50
2019-03-11T10:16:19.896Z,22.50
2019-03-11T10:17:19.847Z,28.12
2019-03-11T10:18:19.816Z,28.12
2019-03-11T10:19:19.827Z,28.12
2019-03-11T10:20:19.839Z,28.12
2019-03-11T10:21:19.796Z,39.38
2019-03-11T10:22:19.795Z,39.38
2019-03-11T10:23:19.822Z,45.00
2019-03-11T10:24:19.808Z,50.62
2019-03-11T10:25:19.741Z,56.25
2019-03-11T10:26:19.816Z,61.88
2019-03-11T10:27:19.726Z,67.50
2019-03-11T10:28:19.822Z,73.12
2019-03-11T10:29:19.799Z,84.38
2019-03-11T10:30:19.699Z,101.25
2019-03-11T10:31:20.609Z,123.75
2019-03-11T10:32:20.422Z,135.00
2019-03-11T10:33:19.911Z,146.25
2019-03-11T10:34:34.658Z,151.88
2019-03-11T10:35:31.382Z,151.88
2019-03-11T10:36:22.794Z,157.50
2019-03-11T10:37:19.859Z,163.12
2019-03-11T10:38:20.577Z,168.75
2019-03-11T10:39:20.385Z,174.38
2019-03-11T10:40:19.861Z,191.25
2019-03-11T10:41:20.516Z,202.50
2019-03-11T10:42:19.663Z,208.12
2019-03-11T10:43:21.718Z,202.50
2019-03-11T10:44:20.497Z,196.88
2019-03-11T10:45:30.197Z,208.12
2019-03-11T10:46:20.847Z,219.38
2019-03-11T10:47:19.735Z,225.00
2019-03-11T10:48:19.810Z,230.62
2019-03-11T10:49:19.614Z,241.88
2019-03-11T10:50:20.542Z,258.75
2019-03-11T10:51:19.934Z,281.25
2019-03-11T10:52:19.662Z,286.88
2019-03-11T10:53:19.704Z,309.38
2019-03-11T10:54:20.393Z,365.62
2019-03-11T10:55:20.598Z,376.88
2019-03-11T10:56:20.098Z,343.12
2019-03-11T10:57:20.592Z,303.75
2019-03-11T10:58:19.499Z,315.00
2019-03-11T10:59:19.684Z,326.25
2019-03-11T11:00:19.499Z,270.00
2019-03-11T11:01:19.597Z,236.25
2019-03-11T11:02:19.505Z,230.62
2019-03-11T11:03:19.511Z,236.25
2019-03-11T11:04:19.516Z,230.62
2019-03-11T11:05:19.523Z,230.62
2019-03-11T11:06:20.404Z,275.62
2019-03-11T11:07:19.554Z,286.88
2019-03-11T11:08:19.548Z,275.62
2019-03-11T11:09:19.550Z,315.00
2019-03-11T11:10:19.986Z,388.12
2019-03-11T11:11:19.670Z,421.88
2019-03-11T11:12:19.470Z,399.38
2019-03-11T11:13:19.894Z,382.50
2019-03-11T11:14:19.384Z,388.12
2019-03-11T11:15:19.600Z,365.62
2019-03-11T11:16:30.561Z,371.25
2019-03-11T11:17:19.407Z,416.25
2019-03-11T11:18:21.067Z,444.38
2019-03-11T11:19:19.325Z,495.00
2019-03-11T11:20:19.425Z,534.38
2019-03-11T11:21:19.920Z,528.75
2019-03-11T11:22:19.956Z,551.25
2019-03-11T11:23:19.357Z,540.00
2019-03-11T11:24:19.357Z,495.00
2019-03-11T11:25:20.083Z,528.75
2019-03-11T11:26:21.725Z,601.88
2019-03-11T11:27:19.476Z,663.75
2019-03-11T11:28:19.483Z,691.88
2019-03-11T11:29:19.388Z,680.62
2019-03-11T11:30:19.292Z,720.00
2019-03-11T11:31:20.632Z,736.88
2019-03-11T11:32:21.988Z,770.62
2019-03-11T11:33:20.058Z,731.25
2019-03-11T11:34:19.127Z,748.12
2019-03-11T11:35:19.331Z,725.62
2019-03-11T11:36:19.849Z,759.38
2019-03-11T11:37:22.043Z,776.25
2019-03-11T11:38:19.248Z,742.50
2019-03-11T11:39:19.256Z,736.88
2019-03-11T11:40:19.989Z,759.38
2019-03-11T11:41:19.680Z,720.00
2019-03-11T11:42:19.175Z,675.00
2019-03-11T11:43:19.106Z,641.25
2019-03-11T11:44:19.165Z,534.38
2019-03-11T11:45:19.204Z,489.38
2019-03-11T11:46:19.426Z,495.00
2019-03-11T11:47:19.108Z,466.88
2019-03-11T11:48:20.154Z,405.00
2019-03-11T11:49:19.122Z,348.75
2019-03-11T11:50:19.028Z,365.62
2019-03-11T11:51:19.559Z,348.75
2019-03-11T11:52:19.147Z,343.12
2019-03-11T11:53:19.151Z,365.62
2019-03-11T11:54:20.592Z,320.62
2019-03-11T11:55:19.179Z,264.38
2019-03-11T11:56:19.379Z,247.50
2019-03-11T11:57:18.974Z,281.25
2019-03-11T11:58:21.554Z,337.50
2019-03-11T11:59:21.549Z,450.00
2019-03-11T12:00:19.014Z,596.25
2019-03-11T12:01:20.351Z,753.75
2019-03-11T12:02:19.525Z,855.00
2019-03-11T12:03:20.671Z,793.12
2019-03-11T12:04:19.439Z,815.62
2019-03-11T12:05:19.036Z,815.62
2019-03-11T12:06:18.861Z,714.38
2019-03-11T12:07:19.384Z,804.38
2019-03-11T12:08:18.850Z,1018.12
2019-03-11T12:09:20.915Z,1215.00
2019-03-11T12:10:18.970Z,1310.62
2019-03-11T12:11:18.874Z,1710.00
2019-03-11T12:12:19.495Z,1738.12
2019-03-11T12:13:18.886Z,1749.38
2019-03-11T12:14:18.924Z,1614.38
2019-03-11T12:15:18.801Z,877.50
2019-03-11T12:16:18.703Z,1749.38
2019-03-11T12:17:19.594Z,1215.00
2019-03-11T12:18:18.927Z,821.25
2019-03-11T12:19:20.594Z,1591.88
2019-03-11T12:20:18.742Z,911.25
2019-03-11T12:21:19.465Z,2103.75
2019-03-11T12:22:19.591Z,798.75
2019-03-11T12:23:18.803Z,793.12
2019-03-11T12:24:18.964Z,1670.62
2019-03-11T12:25:18.767Z,2064.38
2019-03-11T12:26:18.673Z,2626.88
2019-03-11T12:27:18.993Z,1569.38
2019-03-11T12:28:18.893Z,2525.62
2019-03-11T12:29:18.798Z,2857.50
2019-03-11T12:30:18.908Z,2778.75
2019-03-11T12:31:19.287Z,1670.62
2019-03-11T12:32:18.921Z,2880.00
2019-03-11T12:33:20.399Z,2958.75
2019-03-11T12:34:19.555Z,956.25
2019-03-11T12:35:20.595Z,984.38
2019-03-11T12:36:18.747Z,855.00
2019-03-11T12:37:20.923Z,725.62
2019-03-11T12:38:18.556Z,641.25
2019-03-11T12:39:18.588Z,596.25
2019-03-11T12:40:18.571Z,658.12
2019-03-11T12:41:18.478Z,765.00
2019-03-11T12:42:18.597Z,798.75
2019-03-11T12:43:19.000Z,810.00
2019-03-11T12:44:18.495Z,759.38
2019-03-11T12:45:18.520Z,669.38
2019-03-11T12:46:18.511Z,478.12
2019-03-11T12:47:18.518Z,309.38
2019-03-11T12:48:19.052Z,230.62
2019-03-11T12:49:18.429Z,185.62
2019-03-11T12:50:18.551Z,163.12
2019-03-11T12:51:19.058Z,135.00
2019-03-11T12:52:18.561Z,118.12
2019-03-11T12:53:19.301Z,118.12
2019-03-11T12:54:18.466Z,140.62
2019-03-11T12:55:21.635Z,185.62
2019-03-11T12:56:19.216Z,241.88
2019-03-11T12:57:19.100Z,292.50